Fortune Wing — VRHW2 — position and weather

sailwx.info

Track history (hours):
 
Tides and Currents Weather Stations Pressure Air Temp Water Temp Dewpoint Dewpoint Depression Visibility Wind Speed Wind Dir Waves Ship Positions

Fortune Wing

Last reported at 2017-Jul-29 06:37 UTC. Time now 2017-Aug-22 09:04 UTC.
Position N 35°38' E 016°52'.
Warning: this ship's position is 24 days out of date.

Length 190 m; draft 12.6 m.

Type: Cargo ship. MMSI: 477389500.

Date/timePositionNaut miles runAvg speedWind from/ knotsBaromVisibWave heightAir tempDewpointWater temp
2017-Jul-29 06:37N 35°38' E 016°52'213.6
2017-Jul-29 06:30N 35°38' E 016°50'713.7
2017-Jul-29 05:58N 35°40' E 016°42'613.6
2017-Jul-29 05:30N 35°42' E 016°34'713.7
2017-Jul-29 05:00N 35°44' E 016°26'813.5
2017-Jul-29 04:24N 35°47' E 016°17'513.4
2017-Jul-29 04:00N 35°48' E 016°10'713.5
2017-Jul-29 03:30N 35°50' E 016°02'713.7
2017-Jul-29 03:00N 35°52' E 015°54'713.9
2017-Jul-29 02:30N 35°54' E 015°46'713.7
2017-Jul-29 02:00N 35°56' E 015°38'713.7
2017-Jul-29 01:30N 35°58' E 015°30'713.7
2017-Jul-29 01:00N 35°60' E 015°22'713.8
2017-Jul-29 00:30N 36°01' E 015°14'713.9
2017-Jul-29 00:00N 36°03' E 015°05'713.7
2017-Jul-28 23:30N 36°06' E 014°57'713.7
2017-Jul-28 23:00N 36°08' E 014°49'713.6
2017-Jul-28 22:30N 36°11' E 014°41'713.6
2017-Jul-28 22:00N 36°13' E 014°34'713.7
2017-Jul-28 21:31N 36°16' E 014°26'713.6
2017-Jul-28 21:00N 36°18' E 014°18'713.5
2017-Jul-28 20:30N 36°20' E 014°10'713.3
2017-Jul-28 20:00N 36°23' E 014°02'713.3
2017-Jul-28 19:30N 36°25' E 013°55'713.3
2017-Jul-28 19:00N 36°27' E 013°47'713.3
2017-Jul-28 18:31N 36°30' E 013°39'713.2
2017-Jul-28 18:00N 36°32' E 013°32'713.3
2017-Jul-28 17:30N 36°35' E 013°24'713.3
2017-Jul-28 17:00N 36°37' E 013°16'713.3
2017-Jul-28 16:31N 36°39' E 013°08'713.3
2017-Jul-28 16:00N 36°41' E 013°01'713.2
2017-Jul-28 15:31N 36°44' E 012°53'712.9
2017-Jul-28 15:00N 36°46' E 012°45'713.1
2017-Jul-28 14:30N 36°48' E 012°38'713.2
2017-Jul-28 14:01N 36°51' E 012°30'713.3
2017-Jul-28 13:30N 36°53' E 012°22'713.6
2017-Jul-28 13:01N 36°56' E 012°14'713.9
2017-Jul-28 12:30N 36°58' E 012°06'713.7
2017-Jul-28 12:00N 37°01' E 011°58'713.4
2017-Jul-28 11:30N 37°04' E 011°51'713.3
2017-Jul-28 11:00N 37°07' E 011°44'713.5
2017-Jul-28 10:30N 37°11' E 011°36'713.5
2017-Jul-28 10:00N 37°14' E 011°29'1113.7
2017-Jul-28 09:14N 37°19' E 011°17'413.9
2017-Jul-28 08:55N 37°21' E 011°13'913.6
2017-Jul-28 08:14N 37°25' E 011°02'1313.7
2017-Jul-28 07:15N 37°29' E 010°46'413.9
2017-Jul-28 06:58N 37°30' E 010°41'713.8
2017-Jul-28 06:29N 37°31' E 010°32'1313.6
2017-Jul-28 05:30N 37°34' E 010°16'36113.5
2017-Jul-27 02:42N 37°03' E 002°44'2512.4
2017-Jul-27 00:40N 36°58' E 002°13'312.9
2017-Jul-27 00:26N 36°58' E 002°09'912.8
2017-Jul-26 23:46N 36°57' E 001°59'412.8
2017-Jul-26 23:29N 36°56' E 001°54'2312.9
2017-Jul-26 21:42N 36°51' E 001°26'312.8
2017-Jul-26 21:30N 36°51' E 001°23'30413.4
2017-Jul-25 22:46N 36°03' W 004°50'414.1
2017-Jul-25 22:30N 36°02' W 004°55'815.7
2017-Jul-25 22:01N 36°01' W 005°04'816.4
2017-Jul-25 21:31N 36°00' W 005°14'612.9
2017-Jul-25 21:00N 36°05' W 005°20'3 6.9
2017-Jul-25 20:30N 36°08' W 005°23'0 0.8
2017-Jul-25 19:59N 36°08' W 005°22'0 0.0
2017-Jul-25 19:29N 36°08' W 005°22'0 0.0
2017-Jul-25 18:56N 36°08' W 005°22'0 0.2
2017-Jul-25 18:29N 36°08' W 005°22'0 0.0
2017-Jul-25 17:53N 36°08' W 005°22'0 0.0
2017-Jul-25 17:29N 36°08' W 005°22'0 0.0
2017-Jul-25 16:53N 36°08' W 005°22'0 0.0
2017-Jul-25 16:29N 36°08' W 005°22'0 0.3
2017-Jul-25 15:59N 36°08' W 005°22'0 0.2
2017-Jul-25 15:26N 36°08' W 005°22'0 0.1
2017-Jul-25 14:56N 36°08' W 005°22'0 0.0
2017-Jul-25 13:59N 36°08' W 005°22'0 0.1
2017-Jul-25 13:26N 36°08' W 005°22'0 0.1
2017-Jul-25 12:59N 36°08' W 005°22'0 0.0
2017-Jul-25 12:26N 36°08' W 005°22'0 0.3
2017-Jul-25 11:59N 36°08' W 005°22'0 0.2
2017-Jul-25 11:23N 36°08' W 005°22'0 0.1
2017-Jul-25 10:56N 36°08' W 005°22'0 0.6
2017-Jul-25 10:30N 36°08' W 005°22'2 4.0
2017-Jul-25 10:00N 36°06' W 005°22'3 6.8
2017-Jul-25 09:30N 36°02' W 005°23'511.0
2017-Jul-25 09:00N 35°57' W 005°26'1714.5
2017-Jul-25 07:51N 35°55' W 005°47'6513.5
2017-Jul-25 03:04N 35°54' W 007°07'512.7
2017-Jul-25 02:40N 35°54' W 007°13'412.5
2017-Jul-25 02:23N 35°54' W 007°17'512.7
2017-Jul-25 02:00N 35°54' W 007°23'612.9
2017-Jul-25 01:30N 35°55' W 007°31'712.8
2017-Jul-25 01:00N 35°55' W 007°39'612.8
2017-Jul-25 00:30N 35°55' W 007°47'612.9
2017-Jul-25 00:00N 35°55' W 007°55'612.9
2017-Jul-24 23:30N 35°55' W 008°03'612.8
2017-Jul-24 23:00N 35°56' W 008°11'912.5
2017-Jul-24 22:17N 35°56' W 008°22'612.3
2017-Jul-24 21:50N 35°56' W 008°29'412.2
2017-Jul-24 21:30N 35°56' W 008°34'612.2
2017-Jul-24 21:00N 35°56' W 008°41'612.2
2017-Jul-24 20:30N 35°56' W 008°49'612.0
2017-Jul-24 20:00N 35°57' W 008°56'611.8
2017-Jul-24 19:30N 35°57' W 009°03'611.7
2017-Jul-24 19:00N 35°57' W 009°11'611.8
2017-Jul-24 18:30N 35°57' W 009°18'611.6
2017-Jul-24 17:59N 35°57' W 009°25'711.7
2017-Jul-24 17:24N 35°57' W 009°34'511.8
2017-Jul-24 17:00N 35°57' W 009°40'611.8
2017-Jul-24 16:30N 35°58' W 009°47'611.8
2017-Jul-24 16:00N 35°58' W 009°54'3711.7
2017-Jul-24 12:51N 35°59' W 010°40'2111.6
2017-Jul-24 11:01N 36°01' W 011°06'011.5
2017-Jul-24 11:00N 36°01' W 011°06'611.5
2017-Jul-24 10:30N 36°01' W 011°13'611.0
2017-Jul-24 09:59N 36°01' W 011°20'811.1
2017-Jul-24 09:18N 36°01' W 011°29'411.3
2017-Jul-24 08:56N 36°01' W 011°35'711.3
2017-Jul-24 08:17N 36°02' W 011°44'2510.9
2017-Jul-24 06:00N 36°03' W 012°14'16911.7
2017-Jul-23 15:32N 36°11' W 015°43'012.1
2017-Jul-23 15:30N 36°11' W 015°44'1012.0
2017-Jul-23 14:41N 36°11' W 015°56'912.0
2017-Jul-23 13:56N 36°11' W 016°07'25712.3
2017-Jul-22 16:59N 36°21' W 021°26'1512.5
2017-Jul-22 15:48N 36°21' W 021°45'712.7
2017-Jul-22 15:16N 36°22' W 021°53'312.5
2017-Jul-22 15:00N 36°22' W 021°57'2012.7
2017-Jul-22 13:26N 36°22' W 022°22'612.8
2017-Jul-22 12:58N 36°22' W 022°29'4112.7
2017-Jul-22 09:44N 36°23' W 023°20'712.6
2017-Jul-22 09:09N 36°23' W 023°29'212.5
2017-Jul-22 09:00N 36°23' W 023°31'612.4
2017-Jul-22 08:30N 36°24' W 023°39'612.6
2017-Jul-22 08:00N 36°24' W 023°47'612.7
2017-Jul-22 07:30N 36°24' W 023°55'612.8
2017-Jul-22 07:00N 36°24' W 024°03'612.9
2017-Jul-22 06:30N 36°24' W 024°11'612.7
2017-Jul-22 06:00N 36°25' W 024°19'612.9
2017-Jul-22 05:30N 36°25' W 024°27'612.7
2017-Jul-22 05:00N 36°25' W 024°34'612.6
2017-Jul-22 04:31N 36°25' W 024°42'612.1
2017-Jul-22 04:00N 36°25' W 024°50'612.4
2017-Jul-22 03:30N 36°25' W 024°58'612.6
2017-Jul-22 03:00N 36°25' W 025°05'612.5
2017-Jul-22 02:30N 36°25' W 025°13'612.6
2017-Jul-22 02:00N 36°25' W 025°21'612.7
2017-Jul-22 01:30N 36°25' W 025°29'612.7
2017-Jul-22 01:00N 36°25' W 025°37'612.6
2017-Jul-22 00:30N 36°26' W 025°44'612.4
2017-Jul-22 00:00N 36°26' W 025°52'612.7
2017-Jul-21 23:30N 36°26' W 026°00'612.4
2017-Jul-21 23:00N 36°26' W 026°08'612.3
2017-Jul-21 22:30N 36°26' W 026°16'712.4
2017-Jul-21 21:55N 36°26' W 026°25'512.5
2017-Jul-21 21:29N 36°27' W 026°31'8812.0
2017-Jul-21 14:09N 36°28' W 028°20'1011.7
2017-Jul-21 13:17N 36°28' W 028°33'2212.1
2017-Jul-21 11:29N 36°29' W 029°00'612.1
2017-Jul-21 10:59N 36°29' W 029°08'612.1
2017-Jul-21 10:28N 36°29' W 029°15'8212.5
2017-Jul-21 03:51N 36°29' W 030°58'612.1
2017-Jul-21 03:22N 36°29' W 031°05'1012.3
2017-Jul-21 02:32N 36°29' W 031°18'012.7
2017-Jul-21 02:30N 36°29' W 031°18'712.4
2017-Jul-21 01:57N 36°28' W 031°27'612.3
2017-Jul-21 01:29N 36°28' W 031°34'1812.2
2017-Jul-21 00:01N 36°28' W 031°57'011.6
2017-Jul-21 00:00N 36°28' W 031°57'  
Track history (hours):
 
Tides and Currents Weather Stations Pressure Air Temp Water Temp Dewpoint Dewpoint Depression Visibility Wind Speed Wind Dir Waves Ship Positions

Fortune Wing

Last reported at 2017-Jul-29 06:37 UTC. Time now 2017-Aug-22 09:04 UTC.
Position N 35°38' E 016°52'.
Warning: this ship's position is 24 days out of date.

Length 190 m; draft 12.6 m.

Type: Cargo ship. MMSI: 477389500.

Date/timePositionNaut miles runAvg speedWind from/ knotsBaromVisibWave heightAir tempDewpointWater temp
2017-Jul-29 06:37N 35°38' E 016°52'213.6
2017-Jul-29 06:30N 35°38' E 016°50'713.7
2017-Jul-29 05:58N 35°40' E 016°42'613.6
2017-Jul-29 05:30N 35°42' E 016°34'713.7
2017-Jul-29 05:00N 35°44' E 016°26'813.5
2017-Jul-29 04:24N 35°47' E 016°17'513.4
2017-Jul-29 04:00N 35°48' E 016°10'713.5
2017-Jul-29 03:30N 35°50' E 016°02'713.7
2017-Jul-29 03:00N 35°52' E 015°54'713.9
2017-Jul-29 02:30N 35°54' E 015°46'713.7
2017-Jul-29 02:00N 35°56' E 015°38'713.7
2017-Jul-29 01:30N 35°58' E 015°30'713.7
2017-Jul-29 01:00N 35°60' E 015°22'713.8
2017-Jul-29 00:30N 36°01' E 015°14'713.9
2017-Jul-29 00:00N 36°03' E 015°05'713.7
2017-Jul-28 23:30N 36°06' E 014°57'713.7
2017-Jul-28 23:00N 36°08' E 014°49'713.6
2017-Jul-28 22:30N 36°11' E 014°41'713.6
2017-Jul-28 22:00N 36°13' E 014°34'713.7
2017-Jul-28 21:31N 36°16' E 014°26'713.6
2017-Jul-28 21:00N 36°18' E 014°18'713.5
2017-Jul-28 20:30N 36°20' E 014°10'713.3
2017-Jul-28 20:00N 36°23' E 014°02'713.3
2017-Jul-28 19:30N 36°25' E 013°55'713.3
2017-Jul-28 19:00N 36°27' E 013°47'713.3
2017-Jul-28 18:31N 36°30' E 013°39'713.2
2017-Jul-28 18:00N 36°32' E 013°32'713.3
2017-Jul-28 17:30N 36°35' E 013°24'713.3
2017-Jul-28 17:00N 36°37' E 013°16'713.3
2017-Jul-28 16:31N 36°39' E 013°08'713.3
2017-Jul-28 16:00N 36°41' E 013°01'713.2
2017-Jul-28 15:31N 36°44' E 012°53'712.9
2017-Jul-28 15:00N 36°46' E 012°45'713.1
2017-Jul-28 14:30N 36°48' E 012°38'713.2
2017-Jul-28 14:01N 36°51' E 012°30'713.3
2017-Jul-28 13:30N 36°53' E 012°22'713.6
2017-Jul-28 13:01N 36°56' E 012°14'713.9
2017-Jul-28 12:30N 36°58' E 012°06'713.7
2017-Jul-28 12:00N 37°01' E 011°58'713.4
2017-Jul-28 11:30N 37°04' E 011°51'713.3
2017-Jul-28 11:00N 37°07' E 011°44'713.5
2017-Jul-28 10:30N 37°11' E 011°36'713.5
2017-Jul-28 10:00N 37°14' E 011°29'1113.7
2017-Jul-28 09:14N 37°19' E 011°17'413.9
2017-Jul-28 08:55N 37°21' E 011°13'913.6
2017-Jul-28 08:14N 37°25' E 011°02'1313.7
2017-Jul-28 07:15N 37°29' E 010°46'413.9
2017-Jul-28 06:58N 37°30' E 010°41'713.8
2017-Jul-28 06:29N 37°31' E 010°32'1313.6
2017-Jul-28 05:30N 37°34' E 010°16'36113.5
2017-Jul-27 02:42N 37°03' E 002°44'2512.4
2017-Jul-27 00:40N 36°58' E 002°13'312.9
2017-Jul-27 00:26N 36°58' E 002°09'912.8
2017-Jul-26 23:46N 36°57' E 001°59'412.8
2017-Jul-26 23:29N 36°56' E 001°54'2312.9
2017-Jul-26 21:42N 36°51' E 001°26'312.8
2017-Jul-26 21:30N 36°51' E 001°23'30413.4
2017-Jul-25 22:46N 36°03' W 004°50'414.1
2017-Jul-25 22:30N 36°02' W 004°55'815.7
2017-Jul-25 22:01N 36°01' W 005°04'816.4
2017-Jul-25 21:31N 36°00' W 005°14'612.9
2017-Jul-25 21:00N 36°05' W 005°20'3 6.9
2017-Jul-25 20:30N 36°08' W 005°23'0 0.8
2017-Jul-25 19:59N 36°08' W 005°22'0 0.0
2017-Jul-25 19:29N 36°08' W 005°22'0 0.0
2017-Jul-25 18:56N 36°08' W 005°22'0 0.2
2017-Jul-25 18:29N 36°08' W 005°22'0 0.0
2017-Jul-25 17:53N 36°08' W 005°22'0 0.0
2017-Jul-25 17:29N 36°08' W 005°22'0 0.0
2017-Jul-25 16:53N 36°08' W 005°22'0 0.0
2017-Jul-25 16:29N 36°08' W 005°22'0 0.3
2017-Jul-25 15:59N 36°08' W 005°22'0 0.2
2017-Jul-25 15:26N 36°08' W 005°22'0 0.1
2017-Jul-25 14:56N 36°08' W 005°22'0 0.0
2017-Jul-25 13:59N 36°08' W 005°22'0 0.1
2017-Jul-25 13:26N 36°08' W 005°22'0 0.1
2017-Jul-25 12:59N 36°08' W 005°22'0 0.0
2017-Jul-25 12:26N 36°08' W 005°22'0 0.3
2017-Jul-25 11:59N 36°08' W 005°22'0 0.2
2017-Jul-25 11:23N 36°08' W 005°22'0 0.1
2017-Jul-25 10:56N 36°08' W 005°22'0 0.6
2017-Jul-25 10:30N 36°08' W 005°22'2 4.0
2017-Jul-25 10:00N 36°06' W 005°22'3 6.8
2017-Jul-25 09:30N 36°02' W 005°23'511.0
2017-Jul-25 09:00N 35°57' W 005°26'1714.5
2017-Jul-25 07:51N 35°55' W 005°47'6513.5
2017-Jul-25 03:04N 35°54' W 007°07'512.7
2017-Jul-25 02:40N 35°54' W 007°13'412.5
2017-Jul-25 02:23N 35°54' W 007°17'512.7
2017-Jul-25 02:00N 35°54' W 007°23'612.9
2017-Jul-25 01:30N 35°55' W 007°31'712.8
2017-Jul-25 01:00N 35°55' W 007°39'612.8
2017-Jul-25 00:30N 35°55' W 007°47'612.9
2017-Jul-25 00:00N 35°55' W 007°55'612.9
2017-Jul-24 23:30N 35°55' W 008°03'612.8
2017-Jul-24 23:00N 35°56' W 008°11'912.5
2017-Jul-24 22:17N 35°56' W 008°22'612.3
2017-Jul-24 21:50N 35°56' W 008°29'412.2
2017-Jul-24 21:30N 35°56' W 008°34'612.2
2017-Jul-24 21:00N 35°56' W 008°41'612.2
2017-Jul-24 20:30N 35°56' W 008°49'612.0
2017-Jul-24 20:00N 35°57' W 008°56'611.8
2017-Jul-24 19:30N 35°57' W 009°03'611.7
2017-Jul-24 19:00N 35°57' W 009°11'611.8
2017-Jul-24 18:30N 35°57' W 009°18'611.6
2017-Jul-24 17:59N 35°57' W 009°25'711.7
2017-Jul-24 17:24N 35°57' W 009°34'511.8
2017-Jul-24 17:00N 35°57' W 009°40'611.8
2017-Jul-24 16:30N 35°58' W 009°47'611.8
2017-Jul-24 16:00N 35°58' W 009°54'3711.7
2017-Jul-24 12:51N 35°59' W 010°40'2111.6
2017-Jul-24 11:01N 36°01' W 011°06'011.5
2017-Jul-24 11:00N 36°01' W 011°06'611.5
2017-Jul-24 10:30N 36°01' W 011°13'611.0
2017-Jul-24 09:59N 36°01' W 011°20'811.1
2017-Jul-24 09:18N 36°01' W 011°29'411.3
2017-Jul-24 08:56N 36°01' W 011°35'711.3
2017-Jul-24 08:17N 36°02' W 011°44'2510.9
2017-Jul-24 06:00N 36°03' W 012°14'16911.7
2017-Jul-23 15:32N 36°11' W 015°43'012.1
2017-Jul-23 15:30N 36°11' W 015°44'1012.0
2017-Jul-23 14:41N 36°11' W 015°56'912.0
2017-Jul-23 13:56N 36°11' W 016°07'25712.3
2017-Jul-22 16:59N 36°21' W 021°26'1512.5
2017-Jul-22 15:48N 36°21' W 021°45'712.7
2017-Jul-22 15:16N 36°22' W 021°53'312.5
2017-Jul-22 15:00N 36°22' W 021°57'2012.7
2017-Jul-22 13:26N 36°22' W 022°22'612.8
2017-Jul-22 12:58N 36°22' W 022°29'4112.7
2017-Jul-22 09:44N 36°23' W 023°20'712.6
2017-Jul-22 09:09N 36°23' W 023°29'212.5
2017-Jul-22 09:00N 36°23' W 023°31'612.4
2017-Jul-22 08:30N 36°24' W 023°39'612.6
2017-Jul-22 08:00N 36°24' W 023°47'612.7
2017-Jul-22 07:30N 36°24' W 023°55'612.8
2017-Jul-22 07:00N 36°24' W 024°03'612.9
2017-Jul-22 06:30N 36°24' W 024°11'612.7
2017-Jul-22 06:00N 36°25' W 024°19'612.9
2017-Jul-22 05:30N 36°25' W 024°27'612.7
2017-Jul-22 05:00N 36°25' W 024°34'612.6
2017-Jul-22 04:31N 36°25' W 024°42'612.1
2017-Jul-22 04:00N 36°25' W 024°50'612.4
2017-Jul-22 03:30N 36°25' W 024°58'612.6
2017-Jul-22 03:00N 36°25' W 025°05'612.5
2017-Jul-22 02:30N 36°25' W 025°13'612.6
2017-Jul-22 02:00N 36°25' W 025°21'612.7
2017-Jul-22 01:30N 36°25' W 025°29'612.7
2017-Jul-22 01:00N 36°25' W 025°37'612.6
2017-Jul-22 00:30N 36°26' W 025°44'612.4
2017-Jul-22 00:00N 36°26' W 025°52'612.7
2017-Jul-21 23:30N 36°26' W 026°00'612.4
2017-Jul-21 23:00N 36°26' W 026°08'612.3
2017-Jul-21 22:30N 36°26' W 026°16'712.4
2017-Jul-21 21:55N 36°26' W 026°25'512.5
2017-Jul-21 21:29N 36°27' W 026°31'8812.0
2017-Jul-21 14:09N 36°28' W 028°20'1011.7
2017-Jul-21 13:17N 36°28' W 028°33'2212.1
2017-Jul-21 11:29N 36°29' W 029°00'612.1
2017-Jul-21 10:59N 36°29' W 029°08'612.1
2017-Jul-21 10:28N 36°29' W 029°15'8212.5
2017-Jul-21 03:51N 36°29' W 030°58'612.1
2017-Jul-21 03:22N 36°29' W 031°05'1012.3
2017-Jul-21 02:32N 36°29' W 031°18'012.7
2017-Jul-21 02:30N 36°29' W 031°18'712.4
2017-Jul-21 01:57N 36°28' W 031°27'612.3
2017-Jul-21 01:29N 36°28' W 031°34'1812.2
2017-Jul-21 00:01N 36°28' W 031°57'011.6
2017-Jul-21 00:00N 36°28' W 031°57'  

Dump ship's entire track history